Time;durP1;ratioP1;P1;durP2;ratioP2;P2;SDS_P1;SDS_P2;PMS_P1;PMS_P2;Temp;Humidity;BMP_temperature;BMP_pressure;BME280_temperature;BME280_humidity;BME280_pressure;Samples;Min_cycle;Max_cycle;Signal;HPM_P1;HPM_P2
2023/01/03 00:01:07;;;;;;;31.52;19.48;;;6.60;99.90;;;;;;5067717;28;20055;-74
2023/01/03 00:03:33;;;;;;;33.83;19.98;;;6.60;99.90;;;;;;5066187;28;20139;-74
2023/01/03 00:05:58;;;;;;;33.70;20.60;;;6.60;99.90;;;;;;5056460;28;20126;-74
2023/01/03 00:08:24;;;;;;;30.65;19.55;;;6.50;99.90;;;;;;5064499;28;20048;-74
2023/01/03 00:10:49;;;;;;;36.70;20.83;;;6.50;99.90;;;;;;5060469;28;20025;-73
2023/01/03 00:13:15;;;;;;;34.85;18.98;;;6.50;99.90;;;;;;5060985;28;20059;-74
2023/01/03 00:15:40;;;;;;;31.90;19.98;;;6.40;99.90;;;;;;5069034;28;20384;-72
2023/01/03 00:18:06;;;;;;;38.80;20.15;;;6.40;99.90;;;;;;5058094;28;20032;-72
2023/01/03 00:20:33;;;;;;;35.15;19.65;;;6.40;99.90;;;;;;5069636;28;20028;-71
2023/01/03 00:23:00;;;;;;;30.10;19.20;;;6.30;99.90;;;;;;5042112;28;20189;-72
2023/01/03 00:25:27;;;;;;;34.42;20.08;;;6.30;99.90;;;;;;5053779;28;20520;-72
2023/01/03 00:27:52;;;;;;;32.08;19.70;;;6.20;99.90;;;;;;5055207;28;20033;-72
2023/01/03 00:30:18;;;;;;;33.80;19.83;;;6.20;99.90;;;;;;5057164;28;20032;-72
2023/01/03 00:32:43;;;;;;;32.63;20.55;;;6.10;99.90;;;;;;5054561;28;20115;-72
2023/01/03 00:35:09;;;;;;;28.98;18.10;;;6.00;99.90;;;;;;5052381;28;20079;-72
2023/01/03 00:37:34;;;;;;;38.95;21.25;;;6.00;99.90;;;;;;5050423;28;20024;-72
2023/01/03 00:40:00;;;;;;;33.33;20.55;;;5.90;99.90;;;;;;5051532;28;20021;-72
2023/01/03 00:42:25;;;;;;;33.67;19.30;;;5.90;99.90;;;;;;5052542;28;20043;-72
2023/01/03 00:44:51;;;;;;;39.35;20.75;;;5.80;99.90;;;;;;5066290;28;20017;-72
2023/01/03 00:47:16;;;;;;;35.97;20.83;;;5.80;99.90;;;;;;5053935;28;20778;-75
2023/01/03 00:49:42;;;;;;;38.80;20.55;;;5.80;99.90;;;;;;5058630;28;20507;-75
2023/01/03 00:52:07;;;;;;;32.08;20.60;;;5.80;99.90;;;;;;5058201;28;20063;-74
2023/01/03 00:54:33;;;;;;;37.47;21.15;;;5.90;99.90;;;;;;5055526;28;20108;-75
2023/01/03 00:56:59;;;;;;;39.88;21.45;;;5.90;99.90;;;;;;5066772;28;20111;-74
2023/01/03 00:59:25;;;;;;;38.65;22.77;;;6.00;99.90;;;;;;5063446;28;20037;-75
2023/01/03 01:01:53;;;;;;;37.17;22.08;;;6.00;99.90;;;;;;5052677;28;20029;-72
2023/01/03 01:04:27;;;;;;;44.80;23.40;;;6.00;99.90;;;;;;5067745;28;20178;-72
2023/01/03 01:06:58;;;;;;;38.88;23.90;;;6.10;99.90;;;;;;5064616;28;20021;-72
2023/01/03 01:09:28;;;;;;;46.30;25.75;;;6.10;99.90;;;;;;5064052;28;20029;-72
2023/01/03 01:11:54;;;;;;;38.97;23.70;;;6.10;99.90;;;;;;5048180;28;20029;-74
2023/01/03 01:14:23;;;;;;;42.58;24.23;;;6.10;99.90;;;;;;5053677;28;20024;-72
2023/01/03 01:17:01;;;;;;;41.70;25.08;;;6.10;99.90;;;;;;5066638;28;20476;-72
2023/01/03 01:19:30;;;;;;;39.42;23.77;;;6.10;99.90;;;;;;5055652;28;20049;-72
2023/01/03 01:21:56;;;;;;;38.92;22.90;;;6.00;99.90;;;;;;5054722;28;20025;-71
2023/01/03 01:24:22;;;;;;;43.92;24.08;;;6.00;99.90;;;;;;5063549;28;20508;-73
2023/01/03 01:26:48;;;;;;;38.00;23.17;;;5.90;99.90;;;;;;5060263;28;20017;-72
2023/01/03 01:29:15;;;;;;;39.58;24.35;;;5.90;99.90;;;;;;5055816;28;20494;-72
2023/01/03 01:31:41;;;;;;;42.63;24.88;;;5.80;99.90;;;;;;5051360;28;20031;-73
2023/01/03 01:34:07;;;;;;;44.63;24.83;;;5.80;99.90;;;;;;5042477;28;20055;-73
2023/01/03 01:36:38;;;;;;;44.65;25.48;;;5.70;99.90;;;;;;5061596;28;20029;-72
2023/01/03 01:39:09;;;;;;;45.72;25.92;;;5.60;99.90;;;;;;5058176;28;20033;-72
2023/01/03 01:44:44;;;;;;;41.92;25.15;;;5.50;99.90;;;;;;5067562;28;20031;-72
2023/01/03 01:47:35;;;;;;;39.80;23.85;;;5.50;99.90;;;;;;5054460;28;20021;-72
2023/01/03 01:50:18;;;;;;;42.85;24.33;;;5.50;99.90;;;;;;5057458;28;20101;-73
2023/01/03 01:53:03;;;;;;;;;;;5.50;99.90;;;;;;5067815;28;20036;-74
2023/01/03 01:55:42;;;;;;;42.85;24.67;;;5.50;99.90;;;;;;5058267;28;19919;-73
2023/01/03 01:58:09;;;;;;;40.65;25.40;;;5.60;99.90;;;;;;5056186;28;20079;-74
2023/01/03 02:00:36;;;;;;;48.38;26.80;;;5.60;99.90;;;;;;5051434;28;20499;-73
2023/01/03 02:03:02;;;;;;;44.22;27.55;;;5.60;99.90;;;;;;5058939;28;20037;-73
2023/01/03 02:05:30;;;;;;;47.95;26.48;;;5.70;99.90;;;;;;5055419;28;20025;-73
2023/01/03 02:07:57;;;;;;;48.28;28.00;;;5.70;99.90;;;;;;5056113;28;20021;-74
2023/01/03 02:10:30;;;;;;;43.60;26.75;;;5.60;99.90;;;;;;5062092;28;20420;-74
2023/01/03 02:13:10;;;;;;;58.80;27.85;;;5.60;99.90;;;;;;5054540;28;20044;-73
2023/01/03 02:16:00;;;;;;;50.10;27.67;;;5.50;99.90;;;;;;5064252;28;20071;-73
2023/01/03 02:18:45;;;;;;;51.53;28.02;;;5.50;99.90;;;;;;5058092;28;20025;-73
2023/01/03 02:21:20;;;;;;;47.78;26.63;;;5.30;99.90;;;;;;5054253;28;20025;-73
2023/01/03 02:24:09;;;;;;;54.10;28.17;;;5.30;99.90;;;;;;5054025;28;20051;-73
2023/01/03 02:27:08;;;;;;;48.85;27.65;;;5.20;99.90;;;;;;5070325;28;20043;-74
2023/01/03 02:29:46;;;;;;;48.75;26.92;;;5.10;99.90;;;;;;5057299;28;20024;-73
2023/01/03 02:32:32;;;;;;;49.28;27.02;;;5.00;99.90;;;;;;5059238;28;20025;-72
2023/01/03 02:35:05;;;;;;;54.47;27.65;;;4.90;99.90;;;;;;5059471;28;20025;-73
2023/01/03 02:37:57;;;;;;;46.28;26.63;;;4.80;99.90;;;;;;5063635;28;20060;-73
2023/01/03 02:40:36;;;;;;;53.53;28.20;;;4.70;99.90;;;;;;5037078;28;20099;-72
2023/01/03 02:43:07;;;;;;;45.78;27.05;;;4.60;99.90;;;;;;5059538;28;20065;-73
2023/01/03 02:46:04;;;;;;;48.00;25.60;;;4.60;99.90;;;;;;5066034;28;20120;-73
2023/01/03 02:48:42;;;;;;;46.95;26.58;;;4.60;99.90;;;;;;5059582;28;20028;-73
2023/01/03 02:51:15;;;;;;;45.65;25.35;;;4.50;99.90;;;;;;5061189;28;20035;-73
2023/01/03 02:53:45;;;;;;;42.97;24.95;;;4.40;99.90;;;;;;5071209;28;20025;-73
2023/01/03 02:56:18;;;;;;;43.05;25.90;;;4.40;99.90;;;;;;5072877;28;20116;-72
2023/01/03 02:58:47;;;;;;;39.85;23.73;;;4.30;99.90;;;;;;5061111;28;20036;-73
2023/01/03 03:01:15;;;;;;;44.97;25.65;;;4.20;99.90;;;;;;5054695;28;20021;-73
2023/01/03 03:03:41;;;;;;;43.75;25.55;;;4.20;99.90;;;;;;5063396;28;20012;-73
2023/01/03 03:06:18;;;;;;;37.75;23.67;;;4.20;99.90;;;;;;5072100;28;20507;-73
2023/01/03 03:08:45;;;;;;;37.45;23.45;;;4.10;99.90;;;;;;5059257;28;20036;-73
2023/01/03 03:14:05;;;;;;;40.28;23.80;;;4.00;99.90;;;;;;5054529;28;20405;-73
2023/01/03 03:16:53;;;;;;;39.97;21.98;;;3.90;99.90;;;;;;5053091;28;20055;-73
2023/01/03 03:25:25;;;;;;;42.20;23.95;;;3.80;99.90;;;;;;5061227;28;20095;-73
2023/01/03 03:30:41;;;;;;;42.20;23.80;;;3.70;99.90;;;;;;5060544;28;20031;-73
2023/01/03 03:33:10;;;;;;;42.55;23.65;;;3.70;99.90;;;;;;5066841;28;20546;-73
2023/01/03 03:35:45;;;;;;;35.05;21.30;;;3.70;99.90;;;;;;5055118;28;20478;-73
2023/01/03 03:38:14;;;;;;;42.75;19.90;;;3.60;99.90;;;;;;5058800;28;20485;-73
2023/01/03 03:46:50;;;;;;;35.00;19.30;;;3.50;99.90;;;;;;5052455;28;20029;-72
2023/01/03 03:49:38;;;;;;;35.70;19.42;;;3.40;99.90;;;;;;5060083;28;20439;-73
2023/01/03 03:52:07;;;;;;;31.65;18.08;;;3.40;99.90;;;;;;5066687;28;20021;-72
2023/01/03 03:54:36;;;;;;;33.35;19.10;;;3.40;99.90;;;;;;5061605;28;20025;-73
2023/01/03 03:57:14;;;;;;;33.08;18.80;;;3.30;99.90;;;;;;5068405;28;20032;-73
2023/01/03 03:59:44;;;;;;;33.05;19.33;;;3.30;99.90;;;;;;5059039;28;20017;-73
2023/01/03 04:02:11;;;;;;;39.25;18.63;;;3.30;99.90;;;;;;5059728;28;20033;-73
2023/01/03 04:04:43;;;;;;;39.85;19.98;;;3.30;99.90;;;;;;5062425;28;20032;-73
2023/01/03 04:07:09;;;;;;;42.05;20.38;;;3.30;99.90;;;;;;5055451;28;20090;-73
2023/01/03 04:09:34;;;;;;;37.80;19.80;;;3.30;99.90;;;;;;5063529;28;20431;-73
2023/01/03 04:12:00;;;;;;;28.90;17.60;;;3.30;99.90;;;;;;5065242;28;20028;-73
2023/01/03 04:14:25;;;;;;;32.92;17.98;;;3.30;99.90;;;;;;5063282;28;20051;-73
2023/01/03 04:16:51;;;;;;;32.42;18.15;;;3.30;99.90;;;;;;5056187;28;20049;-73
2023/01/03 04:19:16;;;;;;;36.63;17.40;;;3.30;99.90;;;;;;5067921;28;20024;-73
2023/01/03 04:21:42;;;;;;;36.17;18.52;;;3.30;99.90;;;;;;5066890;28;20089;-72
2023/01/03 04:24:07;;;;;;;36.85;17.25;;;3.30;99.90;;;;;;5052444;28;20082;-73
2023/01/03 04:26:33;;;;;;;33.22;18.45;;;3.30;99.90;;;;;;5059606;28;20025;-72
2023/01/03 04:28:58;;;;;;;39.22;19.33;;;3.30;99.90;;;;;;5068536;28;20032;-72
2023/01/03 04:31:24;;;;;;;38.25;18.25;;;3.20;99.90;;;;;;5066295;28;20031;-72
2023/01/03 04:33:50;;;;;;;39.65;18.02;;;3.30;99.90;;;;;;5068138;28;20035;-72
2023/01/03 04:36:17;;;;;;;38.20;18.45;;;3.20;99.90;;;;;;5053518;28;20519;-73
2023/01/03 04:38:43;;;;;;;32.42;18.67;;;3.20;99.90;;;;;;5060943;28;20019;-73
2023/01/03 04:41:08;;;;;;;30.95;17.00;;;3.20;99.90;;;;;;5068170;28;20087;-72
2023/01/03 04:46:19;;;;;;;28.98;16.40;;;3.20;99.90;;;;;;5058354;28;20043;-72
2023/01/03 04:48:44;;;;;;;29.30;17.27;;;3.20;99.90;;;;;;5063770;28;20033;-73
2023/01/03 04:51:10;;;;;;;34.33;17.10;;;3.10;99.90;;;;;;5067877;28;20037;-73
2023/01/03 04:53:36;;;;;;;38.17;18.02;;;3.10;99.90;;;;;;5057969;28;20088;-72
2023/01/03 04:56:01;;;;;;;39.85;17.23;;;3.10;99.90;;;;;;5059452;28;20105;-72
2023/01/03 04:58:27;;;;;;;34.22;15.82;;;3.10;99.90;;;;;;5058089;28;20043;-72
2023/01/03 05:01:02;;;;;;;32.58;15.73;;;3.10;99.90;;;;;;5057916;28;20025;-72
2023/01/03 05:03:29;;;;;;;27.90;15.98;;;3.10;99.90;;;;;;5065399;28;20024;-73
2023/01/03 05:06:03;;;;;;;36.00;18.05;;;3.00;99.90;;;;;;5052468;28;20021;-72
2023/01/03 05:08:29;;;;;;;33.67;17.17;;;3.00;99.90;;;;;;5050266;28;20059;-72
2023/01/03 05:10:55;;;;;;;33.70;17.50;;;3.00;99.90;;;;;;5053967;28;20017;-72
2023/01/03 05:13:21;;;;;;;35.58;17.73;;;3.00;99.90;;;;;;5062558;28;20048;-72
2023/01/03 05:15:47;;;;;;;37.25;17.38;;;3.00;99.90;;;;;;5058102;28;20079;-72
2023/01/03 05:18:13;;;;;;;42.58;17.67;;;3.10;99.90;;;;;;5055767;28;20093;-72
2023/01/03 05:26:16;;;;;;;34.83;17.33;;;3.00;99.90;;;;;;5056424;28;20048;-73
2023/01/03 05:28:44;;;;;;;32.38;15.55;;;3.00;99.90;;;;;;5051836;28;20481;-73
2023/01/03 05:31:09;;;;;;;34.92;16.83;;;3.00;99.90;;;;;;5065971;28;20558;-72
2023/01/03 05:33:38;;;;;;;26.30;15.10;;;3.10;99.90;;;;;;5058157;28;20076;-72
2023/01/03 05:36:04;;;;;;;31.67;15.88;;;3.10;99.90;;;;;;5069832;28;20028;-72
2023/01/03 05:38:30;;;;;;;26.92;15.05;;;3.00;99.90;;;;;;5066421;28;20788;-72
2023/01/03 05:40:55;;;;;;;33.63;16.17;;;3.00;99.90;;;;;;5050913;28;20132;-72
2023/01/03 05:43:21;;;;;;;32.28;15.77;;;3.10;99.90;;;;;;5051625;28;20037;-72
2023/01/03 05:45:51;;;;;;;34.72;16.45;;;3.10;99.90;;;;;;5068017;28;20028;-72
2023/01/03 05:48:17;;;;;;;33.95;16.13;;;3.20;99.90;;;;;;5057735;28;20504;-73
2023/01/03 05:50:43;;;;;;;37.75;18.15;;;3.30;99.90;;;;;;5056173;28;20099;-72
2023/01/03 05:53:09;;;;;;;35.97;18.80;;;3.30;99.90;;;;;;5062650;28;20147;-73
2023/01/03 05:55:36;;;;;;;36.33;17.58;;;3.40;99.90;;;;;;5050861;28;20060;-72
2023/01/03 05:58:02;;;;;;;38.17;19.73;;;3.50;99.90;;;;;;5050124;28;20025;-72
2023/01/03 06:00:28;;;;;;;38.42;19.30;;;3.60;99.90;;;;;;5056532;28;20039;-72
2023/01/03 06:02:54;;;;;;;32.28;17.73;;;3.60;99.90;;;;;;5058528;28;20029;-72
2023/01/03 06:05:19;;;;;;;31.33;17.38;;;3.70;99.90;;;;;;5051615;28;20033;-73
2023/01/03 06:07:45;;;;;;;26.85;14.80;;;3.70;99.90;;;;;;5059005;28;20074;-72
2023/01/03 06:10:10;;;;;;;40.08;18.15;;;3.80;99.90;;;;;;5067086;28;20120;-72
2023/01/03 06:12:36;;;;;;;32.97;16.77;;;3.80;99.90;;;;;;5061916;28;20643;-73
2023/01/03 06:15:02;;;;;;;36.85;18.15;;;3.90;99.90;;;;;;5058209;28;20067;-72
2023/01/03 06:20:12;;;;;;;43.30;18.85;;;4.00;99.90;;;;;;5053114;28;20544;-72
2023/01/03 06:22:37;;;;;;;40.10;18.27;;;4.10;99.90;;;;;;5051041;28;20104;-72
2023/01/03 06:25:03;;;;;;;32.25;15.80;;;4.10;99.90;;;;;;5050926;28;20025;-73
2023/01/03 06:27:29;;;;;;;30.90;16.15;;;4.20;99.90;;;;;;5059183;28;20084;-74
2023/01/03 06:29:54;;;;;;;36.47;17.17;;;4.20;99.90;;;;;;5069222;28;20049;-74
2023/01/03 06:32:20;;;;;;;38.03;17.35;;;4.20;99.90;;;;;;5068387;28;20495;-74
2023/01/03 06:34:45;;;;;;;33.50;16.40;;;4.20;99.90;;;;;;5052928;28;20029;-74
2023/01/03 06:37:11;;;;;;;36.20;16.10;;;4.30;99.90;;;;;;5055216;28;20063;-74
2023/01/03 06:39:36;;;;;;;31.95;16.08;;;4.30;99.90;;;;;;5050701;28;20114;-74
2023/01/03 06:53:11;;;;;;;33.45;16.00;;;4.30;99.90;;;;;;5051558;28;20419;-74
2023/01/03 06:53:11;;;;;;;33.05;15.40;;;4.30;99.90;;;;;;5056180;28;20556;-74
2023/01/03 06:55:36;;;;;;;29.58;15.20;;;4.30;99.90;;;;;;5057526;28;20171;-73
2023/01/03 06:58:02;;;;;;;31.63;17.02;;;4.20;99.90;;;;;;5071725;28;20123;-76
2023/01/03 07:00:28;;;;;;;31.73;16.02;;;4.30;99.90;;;;;;5061037;28;20032;-76
2023/01/03 07:02:53;;;;;;;34.20;15.70;;;4.30;99.90;;;;;;5064076;28;20077;-76
2023/01/03 07:05:19;;;;;;;39.63;17.08;;;4.30;99.90;;;;;;5071248;28;20456;-76
2023/01/03 07:07:44;;;;;;;31.70;15.95;;;4.30;99.90;;;;;;5068611;28;20067;-76
2023/01/03 07:10:10;;;;;;;37.17;16.58;;;4.30;99.90;;;;;;5045369;28;20384;-76
2023/01/03 07:15:20;;;;;;;30.08;14.55;;;4.30;99.90;;;;;;5062511;28;20035;-77
2023/01/03 07:17:45;;;;;;;33.28;14.55;;;4.30;99.90;;;;;;5062504;28;20029;-76
2023/01/03 07:20:11;;;;;;;42.92;15.95;;;4.30;99.90;;;;;;5063633;28;20388;-76
2023/01/03 07:22:36;;;;;;;32.17;15.45;;;4.20;99.90;;;;;;5057630;28;20472;-77
2023/01/03 07:25:02;;;;;;;29.48;14.25;;;4.20;99.90;;;;;;5072916;28;20517;-76
2023/01/03 07:27:28;;;;;;;36.72;14.98;;;4.20;99.90;;;;;;5066856;28;20025;-76
2023/01/03 07:29:53;;;;;;;27.70;14.52;;;4.30;99.90;;;;;;5055866;28;20472;-75
2023/01/03 07:32:19;;;;;;;36.20;16.02;;;4.20;99.90;;;;;;5054114;28;20032;-76
2023/01/03 07:34:45;;;;;;;27.02;14.68;;;4.30;99.90;;;;;;5057276;28;20147;-76
2023/01/03 07:37:10;;;;;;;28.67;14.75;;;4.30;99.90;;;;;;5059847;28;20388;-76
2023/01/03 07:39:36;;;;;;;32.35;15.00;;;4.30;99.90;;;;;;5062458;28;20037;-76
2023/01/03 07:44:46;;;;;;;30.45;15.90;;;4.40;99.90;;;;;;5060306;28;20031;-75
2023/01/03 07:47:11;;;;;;;32.65;15.27;;;4.40;99.90;;;;;;5059111;28;20492;-75
2023/01/03 07:49:37;;;;;;;27.98;13.50;;;4.40;99.90;;;;;;5058975;28;20024;-75
2023/01/03 07:52:02;;;;;;;27.70;14.70;;;4.50;99.90;;;;;;5062102;28;20457;-75
2023/01/03 07:54:28;;;;;;;30.25;14.13;;;4.50;99.90;;;;;;5066927;28;20040;-75
2023/01/03 07:56:53;;;;;;;32.83;15.48;;;4.60;99.90;;;;;;5067578;28;20512;-75
2023/01/03 07:59:19;;;;;;;32.10;14.48;;;4.60;99.90;;;;;;5061392;28;20025;-75
2023/01/03 08:01:44;;;;;;;27.50;14.05;;;4.70;99.90;;;;;;5061632;28;20056;-75
2023/01/03 08:04:10;;;;;;;27.75;13.88;;;4.60;99.90;;;;;;5057244;28;20047;-75
2023/01/03 08:06:36;;;;;;;31.35;14.48;;;4.70;99.90;;;;;;5062839;28;20075;-75
2023/01/03 08:14:30;;;;;;;20.55;12.02;;;4.90;99.90;;;;;;5050506;28;20047;-75
2023/01/03 08:16:56;;;;;;;22.73;13.25;;;5.00;99.90;;;;;;5060201;28;20021;-75
2023/01/03 08:19:22;;;;;;;28.33;13.60;;;5.00;99.90;;;;;;5052896;28;20025;-75
2023/01/03 08:21:48;;;;;;;26.13;13.93;;;5.10;99.90;;;;;;5056139;28;20075;-75
2023/01/03 08:24:14;;;;;;;27.77;12.93;;;5.10;99.90;;;;;;5054570;28;20434;-74
2023/01/03 08:26:39;;;;;;;25.58;13.48;;;5.20;99.90;;;;;;5049298;28;20032;-75
2023/01/03 08:29:05;;;;;;;26.98;14.48;;;5.30;99.90;;;;;;5062848;28;20035;-75
2023/01/03 08:31:34;;;;;;;21.95;13.35;;;5.30;99.90;;;;;;5068863;28;20395;-75
2023/01/03 08:34:03;;;;;;;31.40;15.52;;;5.40;99.90;;;;;;5072542;28;20032;-75
2023/01/03 08:36:34;;;;;;;25.58;13.77;;;5.40;99.90;;;;;;5053528;28;20040;-76
2023/01/03 08:39:05;;;;;;;26.25;13.45;;;5.40;99.90;;;;;;5057404;28;20024;-75
2023/01/03 08:41:44;;;;;;;24.45;13.73;;;5.50;99.90;;;;;;5052183;28;20052;-74
2023/01/03 08:44:10;;;;;;;25.17;13.55;;;5.50;99.90;;;;;;5059509;28;20465;-74
2023/01/03 08:46:39;;;;;;;25.48;13.13;;;5.60;99.90;;;;;;5051202;28;20040;-74
2023/01/03 08:49:05;;;;;;;27.27;14.90;;;5.60;99.90;;;;;;5053241;28;20043;-74
2023/01/03 08:51:31;;;;;;;27.77;13.35;;;5.70;99.90;;;;;;5050371;28;20025;-76
2023/01/03 08:53:57;;;;;;;26.45;13.48;;;5.70;99.90;;;;;;5055201;28;20148;-76
2023/01/03 08:56:22;;;;;;;26.77;14.13;;;5.70;99.90;;;;;;5054042;28;20040;-74
2023/01/03 08:58:48;;;;;;;29.90;14.82;;;5.80;99.90;;;;;;5053321;28;20041;-74
2023/01/03 09:01:13;;;;;;;28.10;14.88;;;5.90;99.90;;;;;;5055868;28;20472;-74
2023/01/03 09:03:39;;;;;;;26.27;14.05;;;5.90;99.90;;;;;;5048461;28;20035;-74
2023/01/03 09:06:06;;;;;;;31.30;14.43;;;6.00;99.90;;;;;;5063896;28;20021;-75
2023/01/03 09:08:35;;;;;;;29.35;14.57;;;6.00;99.90;;;;;;5058627;28;20017;-74
2023/01/03 09:11:05;;;;;;;34.72;13.93;;;6.10;99.90;;;;;;5062361;28;20150;-74
2023/01/03 09:13:31;;;;;;;27.65;14.20;;;6.20;99.90;;;;;;5054004;28;20076;-75
2023/01/03 09:16:08;;;;;;;27.25;14.25;;;6.20;99.90;;;;;;5064789;28;20071;-76
2023/01/03 09:18:34;;;;;;;27.00;14.38;;;6.30;99.90;;;;;;5047638;28;20119;-75
2023/01/03 09:21:02;;;;;;;29.50;14.90;;;6.30;99.90;;;;;;5064175;28;20035;-75
2023/01/03 09:23:28;;;;;;;32.85;14.63;;;6.40;99.90;;;;;;5066902;28;20032;-76
2023/01/03 09:25:54;;;;;;;30.23;15.48;;;6.40;99.90;;;;;;5070078;28;20024;-76
2023/01/03 09:28:19;;;;;;;30.48;15.10;;;6.40;99.90;;;;;;5071488;28;20039;-75
2023/01/03 09:30:45;;;;;;;33.10;16.17;;;6.50;99.90;;;;;;5060369;28;20025;-75
2023/01/03 09:33:10;;;;;;;33.53;15.75;;;6.50;99.90;;;;;;5064434;28;20032;-75
2023/01/03 09:35:39;;;;;;;28.55;15.95;;;6.50;99.90;;;;;;5058774;28;20033;-75
2023/01/03 09:38:04;;;;;;;33.00;16.08;;;6.60;99.90;;;;;;5041362;28;20113;-75
2023/01/03 09:40:35;;;;;;;35.50;17.35;;;6.60;99.90;;;;;;5061069;28;20076;-75
2023/01/03 09:43:11;;;;;;;34.35;17.25;;;6.70;99.90;;;;;;5063931;28;20480;-75
2023/01/03 09:45:42;;;;;;;35.17;17.08;;;6.70;99.90;;;;;;5065150;28;20499;-75
2023/01/03 09:48:12;;;;;;;35.65;16.92;;;6.80;99.90;;;;;;5060905;28;20028;-75
2023/01/03 09:50:40;;;;;;;33.05;16.40;;;6.80;99.90;;;;;;5066155;28;20036;-75
2023/01/03 10:04:53;;;;;;;28.27;15.25;;;7.10;99.90;;;;;;5061133;28;20102;-75
2023/01/03 10:07:35;;;;;;;35.97;14.55;;;7.10;99.90;;;;;;5073379;28;20549;-75
2023/01/03 10:10:32;;;;;;;26.93;14.20;;;7.20;99.90;;;;;;5067693;28;20033;-76
2023/01/03 10:13:22;;;;;;;32.00;14.85;;;7.30;99.90;;;;;;5053289;28;20488;-76
2023/01/03 10:15:56;;;;;;;27.98;14.27;;;7.30;99.90;;;;;;5052271;28;20114;-75
2023/01/03 10:18:47;;;;;;;31.00;15.48;;;7.30;99.90;;;;;;5053044;28;20048;-74
2023/01/03 10:21:37;;;;;;;27.83;13.75;;;7.40;99.90;;;;;;5049377;28;20029;-75
2023/01/03 10:24:17;;;;;;;28.73;13.75;;;7.40;99.90;;;;;;5052867;28;20036;-75
2023/01/03 10:26:42;;;;;;;31.48;14.98;;;7.40;99.90;;;;;;5050612;28;20017;-75
2023/01/03 10:29:08;;;;;;;26.70;12.95;;;7.50;99.90;;;;;;5053696;28;20021;-75
2023/01/03 10:32:01;;;;;;;31.98;14.98;;;7.50;99.90;;;;;;5054888;28;20033;-75
2023/01/03 10:34:27;;;;;;;27.48;13.35;;;7.50;99.90;;;;;;5036816;28;20049;-75
2023/01/03 10:36:53;;;;;;;30.92;13.88;;;7.60;99.90;;;;;;5054365;28;20032;-75
2023/01/03 10:39:31;;;;;;;30.92;14.00;;;7.50;99.90;;;;;;5057010;28;20029;-75
2023/01/03 10:41:58;;;;;;;33.85;14.43;;;7.50;99.90;;;;;;5037071;28;20125;-75
2023/01/03 10:44:29;;;;;;;25.70;13.30;;;7.60;99.90;;;;;;5054228;28;20389;-76
2023/01/03 10:46:57;;;;;;;25.17;12.93;;;7.60;99.90;;;;;;5055190;28;20028;-75
2023/01/03 10:49:29;;;;;;;24.90;13.00;;;7.70;99.90;;;;;;5054345;28;20435;-75
2023/01/03 10:52:08;;;;;;;25.25;11.75;;;7.70;99.90;;;;;;5057148;28;20031;-75
2023/01/03 10:54:36;;;;;;;23.33;11.45;;;7.80;99.90;;;;;;5067761;28;20041;-75
2023/01/03 10:57:04;;;;;;;24.92;11.80;;;7.80;99.90;;;;;;5055172;28;20414;-75
2023/01/03 10:59:31;;;;;;;24.90;10.82;;;8.00;99.90;;;;;;5064811;28;20017;-75
2023/01/03 11:02:12;;;;;;;20.52;10.70;;;8.00;99.90;;;;;;5030664;28;20463;-75
2023/01/03 11:04:38;;;;;;;27.02;11.70;;;8.10;99.90;;;;;;5054680;28;20116;-75
2023/01/03 11:07:11;;;;;;;23.05;10.20;;;8.00;99.90;;;;;;5052608;28;20116;-75
2023/01/03 11:09:50;;;;;;;27.30;11.77;;;8.10;99.90;;;;;;5052205;28;20392;-75
2023/01/03 11:12:34;;;;;;;20.77;10.35;;;8.10;99.90;;;;;;5054910;28;20025;-74
2023/01/03 11:15:02;;;;;;;22.55;10.80;;;8.10;99.90;;;;;;5069814;28;20392;-75
2023/01/03 11:17:29;;;;;;;20.77;10.48;;;8.10;99.90;;;;;;5048248;28;20083;-75
2023/01/03 11:19:56;;;;;;;20.65;9.98;;;8.10;99.90;;;;;;5057589;28;20048;-75
2023/01/03 11:22:54;;;;;;;18.17;9.57;;;8.10;99.90;;;;;;5056955;28;20060;-74
2023/01/03 11:25:51;;;;;;;16.92;8.98;;;8.10;99.90;;;;;;5061634;28;20153;-74
2023/01/03 11:28:37;;;;;;;19.00;9.27;;;8.10;99.90;;;;;;5036454;28;20025;-74
2023/01/03 11:31:19;;;;;;;16.27;9.02;;;8.10;99.90;;;;;;5054180;28;20434;-74
2023/01/03 11:34:17;;;;;;;19.07;9.30;;;8.10;99.90;;;;;;5061477;28;20036;-74
2023/01/03 11:37:19;;;;;;;17.63;9.30;;;8.10;99.90;;;;;;5055329;28;20526;-74
2023/01/03 11:39:44;;;;;;;17.08;8.90;;;8.10;99.90;;;;;;5067652;28;20025;-75
2023/01/03 11:42:28;;;;;;;19.50;8.82;;;8.10;99.90;;;;;;5073486;28;20448;-74
2023/01/03 11:45:09;;;;;;;13.07;7.85;;;8.10;99.90;;;;;;5069065;28;20468;-74
2023/01/03 11:48:04;;;;;;;18.73;9.60;;;8.10;99.90;;;;;;5067587;28;20037;-74
2023/01/03 11:50:53;;;;;;;16.25;9.05;;;8.10;99.90;;;;;;5060893;28;20025;-75
2023/01/03 11:53:41;;;;;;;17.60;7.95;;;8.10;99.90;;;;;;5071812;28;20079;-74
2023/01/03 11:56:26;;;;;;;15.55;8.55;;;8.20;99.90;;;;;;5068507;28;20040;-75
2023/01/03 11:58:58;;;;;;;14.77;7.10;;;8.20;99.90;;;;;;5061861;28;20025;-75
2023/01/03 12:01:52;;;;;;;13.00;7.93;;;8.20;99.90;;;;;;5060087;28;20020;-75
2023/01/03 12:04:56;;;;;;;17.20;8.38;;;8.30;99.90;;;;;;5062124;28;20366;-74
2023/01/03 12:07:30;;;;;;;15.40;8.05;;;8.30;99.90;;;;;;5055507;28;20081;-76
2023/01/03 12:10:20;;;;;;;15.13;7.38;;;8.30;99.90;;;;;;5057987;28;20017;-74
2023/01/03 12:13:24;;;;;;;14.48;8.20;;;8.30;99.90;;;;;;5051865;28;20037;-75
2023/01/03 12:16:11;;;;;;;15.00;8.10;;;8.30;99.90;;;;;;5066764;28;20040;-75
2023/01/03 12:18:40;;;;;;;14.88;8.00;;;8.40;99.90;;;;;;5068777;28;20029;-74
2023/01/03 12:21:25;;;;;;;17.25;8.55;;;8.40;99.90;;;;;;5061274;28;20532;-74
2023/01/03 12:24:13;;;;;;;17.67;8.70;;;8.40;99.90;;;;;;5053226;28;20037;-74
2023/01/03 12:26:42;;;;;;;15.77;9.00;;;8.40;99.90;;;;;;5060518;28;20555;-74
2023/01/03 12:29:32;;;;;;;16.90;8.88;;;8.40;99.90;;;;;;5061797;28;20510;-76
2023/01/03 12:32:13;;;;;;;15.70;9.48;;;8.40;99.90;;;;;;5063759;28;20118;-75
2023/01/03 12:34:49;;;;;;;14.70;8.70;;;8.50;99.90;;;;;;5049327;28;20067;-76
2023/01/03 12:37:29;;;;;;;12.43;7.53;;;8.50;99.90;;;;;;5059103;28;20031;-75
2023/01/03 12:40:25;;;;;;;17.00;7.93;;;8.60;99.90;;;;;;5071376;28;20376;-75
2023/01/03 12:43:11;;;;;;;16.45;8.15;;;8.70;99.90;;;;;;5061836;28;20435;-76
2023/01/03 12:45:54;;;;;;;15.23;7.55;;;8.80;99.90;;;;;;5068389;28;20063;-75
2023/01/03 12:48:47;;;;;;;16.45;7.80;;;8.80;99.90;;;;;;5062185;28;20024;-75
2023/01/03 12:51:18;;;;;;;13.55;7.47;;;8.90;99.90;;;;;;5039423;28;20036;-76
2023/01/03 12:54:05;;;;;;;12.48;7.97;;;8.90;99.90;;;;;;5045194;28;20399;-74
2023/01/03 12:56:45;;;;;;;14.20;9.23;;;8.90;99.90;;;;;;5058069;28;20378;-75
2023/01/03 12:59:57;;;;;;;16.92;8.25;;;8.90;99.90;;;;;;5071151;28;20032;-74
2023/01/03 13:02:26;;;;;;;14.02;8.30;;;9.00;99.90;;;;;;5052675;28;20020;-74
2023/01/03 13:04:56;;;;;;;10.50;6.55;;;9.00;99.90;;;;;;5054962;28;20052;-74
2023/01/03 13:07:29;;;;;;;11.18;5.72;;;9.00;99.90;;;;;;5060436;28;20025;-74
2023/01/03 13:10:03;;;;;;;;;;;9.00;99.90;;;;;;5057222;28;20017;-74
2023/01/03 13:12:34;;;;;;;11.45;4.95;;;9.00;99.90;;;;;;5053687;28;19916;-74
2023/01/03 13:15:24;;;;;;;10.23;4.05;;;9.00;99.90;;;;;;5062555;28;20020;-74
2023/01/03 13:17:49;;;;;;;8.57;4.28;;;8.90;99.90;;;;;;5066720;28;20025;-76
2023/01/03 13:20:26;;;;;;;8.25;4.10;;;8.90;99.90;;;;;;5060405;28;20077;-74
2023/01/03 13:22:54;;;;;;;8.75;3.45;;;8.90;99.90;;;;;;5061247;28;20480;-74
2023/01/03 13:25:41;;;;;;;9.25;3.42;;;9.00;99.90;;;;;;5050466;28;20020;-74
2023/01/03 13:28:28;;;;;;;6.10;2.97;;;9.00;99.90;;;;;;5059957;28;20032;-75
2023/01/03 13:31:16;;;;;;;7.43;3.30;;;9.00;99.90;;;;;;5051058;28;20025;-74
2023/01/03 13:33:52;;;;;;;8.65;3.67;;;9.00;99.90;;;;;;5050970;28;20044;-74
2023/01/03 13:36:18;;;;;;;7.28;3.08;;;8.90;99.90;;;;;;5056782;28;20028;-74
2023/01/03 13:38:44;;;;;;;4.88;2.40;;;8.90;99.90;;;;;;5052524;28;20029;-74
2023/01/03 13:41:31;;;;;;;6.57;2.58;;;8.80;99.90;;;;;;5056989;28;20119;-73
2023/01/03 13:44:18;;;;;;;5.65;3.03;;;8.80;99.90;;;;;;5070526;28;20031;-73
2023/01/03 13:46:45;;;;;;;8.60;3.20;;;8.70;99.90;;;;;;5068056;28;20110;-72
2023/01/03 13:49:25;;;;;;;8.30;2.53;;;8.70;99.90;;;;;;5070290;28;20499;-73
2023/01/03 13:51:56;;;;;;;7.43;3.28;;;8.80;99.90;;;;;;5070710;28;20031;-73
2023/01/03 13:54:23;;;;;;;6.82;3.30;;;8.80;99.90;;;;;;5071152;28;20032;-73
2023/01/03 13:56:56;;;;;;;8.48;3.40;;;8.80;99.90;;;;;;5070664;28;20131;-73
2023/01/03 13:59:31;;;;;;;11.82;4.00;;;8.80;99.90;;;;;;5056291;28;20029;-73
2023/01/03 14:02:19;;;;;;;11.95;3.85;;;8.80;99.90;;;;;;5051483;28;20036;-73
2023/01/03 14:05:28;;;;;;;12.70;4.55;;;8.80;99.90;;;;;;5055451;28;20025;-73
2023/01/03 14:08:09;;;;;;;8.93;4.50;;;8.80;99.90;;;;;;5052830;28;20048;-73